Bracht, Kentucky
Current Conditions -  °F | °C
As of 10:52 AM on Friday 24 Oct 2014 (Local Time) from KCVG Reporting Station
Few Clouds Few Clouds  
Wind Chill: 57°   Ceiling: Unl
Heat Index: 57°   Visibility: 10mi
Dew Point: 43°   Wind: 5mph
Humidity: 59%   Direction: 240°WSW
Pressure: 30.13"   Gusts: NA
Location:  38.7783°N, 84.6037°W
Report Text: KCVG 241452Z 24004KT 10SM FEW150 14/06 A3013 RMK AO2 SLP200 T01390061 51002
Loading
Personal Weather Stations






























Interactive Weather Map
Tropical Storm Tracking
New forecast layout! Learn more

10-Day Weather Forecast

Advertisements
Track Severe Weather on mobile